Time;durP1;ratioP1;P1;durP2;ratioP2;P2;SDS_P1;SDS_P2;PMS_P1;PMS_P2;Temp;Humidity;BMP_temperature;BMP_pressure;BME280_temperature;BME280_humidity;BME280_pressure;Samples;Min_cycle;Max_cycle;Signal;HPM_P1;HPM_P2
2021/09/11 00:00:16;;;;;;;0.13;0.10;;;15.40;99.90;;;;;;5051388;28;20287;-78
2021/09/11 00:02:43;;;;;;;0.20;0.20;;;15.40;99.90;;;;;;5053598;28;20186;-79
2021/09/11 00:05:09;;;;;;;0.10;0.10;;;15.40;99.90;;;;;;5052592;28;20041;-79
2021/09/11 00:07:35;;;;;;;0.35;0.13;;;15.30;99.90;;;;;;5049544;28;20025;-78
2021/09/11 00:10:01;;;;;;;0.10;0.10;;;15.40;99.90;;;;;;5052386;28;20053;-78
2021/09/11 00:12:27;;;;;;;0.00;0.00;;;15.50;99.90;;;;;;5050351;28;20037;-78
2021/09/11 00:14:52;;;;;;;0.00;0.00;;;15.50;99.90;;;;;;5048994;28;20033;-79
2021/09/11 00:17:18;;;;;;;0.23;0.23;;;15.50;99.90;;;;;;5049266;28;20032;-79
2021/09/11 00:19:43;;;;;;;0.17;0.17;;;15.50;99.90;;;;;;5032335;28;20040;-78
2021/09/11 00:22:09;;;;;;;0.00;0.00;;;15.40;99.90;;;;;;5051671;28;20025;-78
2021/09/11 00:24:35;;;;;;;0.00;0.00;;;15.40;99.90;;;;;;5033530;28;20143;-78
2021/09/11 00:27:01;;;;;;;0.67;0.40;;;15.40;99.90;;;;;;5034057;28;20032;-79
2021/09/11 00:29:26;;;;;;;0.00;0.00;;;15.50;99.90;;;;;;5050470;28;20020;-79
2021/09/11 00:31:52;;;;;;;0.00;0.00;;;15.60;99.90;;;;;;5051785;28;20446;-78
2021/09/11 00:34:18;;;;;;;0.00;0.00;;;15.60;99.90;;;;;;5052319;28;20734;-79
2021/09/11 00:36:43;;;;;;;0.07;0.07;;;15.60;99.90;;;;;;5036814;28;20029;-78
2021/09/11 00:39:09;;;;;;;0.10;0.10;;;15.60;99.90;;;;;;5053377;28;20036;-78
2021/09/11 00:41:35;;;;;;;0.00;0.00;;;15.70;99.90;;;;;;5029664;28;20043;-78
2021/09/11 00:44:01;;;;;;;0.30;0.30;;;15.70;99.90;;;;;;5045140;28;20036;-78
2021/09/11 00:46:27;;;;;;;0.15;0.15;;;15.80;1.00;;;;;;5052567;28;20073;-78
2021/09/11 00:48:53;;;;;;;0.30;0.30;;;15.80;1.00;;;;;;5057021;28;20067;-78
2021/09/11 00:51:19;;;;;;;0.10;0.10;;;15.80;1.00;;;;;;5052815;28;20029;-78
2021/09/11 00:53:45;;;;;;;0.10;0.10;;;15.80;1.00;;;;;;5056065;28;20105;-78
2021/09/11 00:56:12;;;;;;;0.00;0.00;;;15.80;1.00;;;;;;5054206;28;20105;-78
2021/09/11 00:58:39;;;;;;;0.00;0.00;;;15.80;1.00;;;;;;5031987;28;20494;-78
2021/09/11 01:01:06;;;;;;;0.52;0.52;;;15.90;1.00;;;;;;5058832;28;20029;-78
2021/09/11 01:03:32;;;;;;;0.30;0.15;;;15.90;1.00;;;;;;5037559;28;20453;-78
2021/09/11 01:05:58;;;;;;;0.23;0.20;;;15.90;1.00;;;;;;5057273;28;20047;-78
2021/09/11 01:08:28;;;;;;;0.90;0.15;;;15.90;1.00;;;;;;5057663;28;20044;-79
2021/09/11 01:10:53;;;;;;;0.20;0.20;;;15.80;99.90;;;;;;5056552;28;20059;-78
2021/09/11 01:13:19;;;;;;;0.33;0.33;;;15.90;99.90;;;;;;5054503;28;20028;-78
2021/09/11 01:15:45;;;;;;;0.00;0.00;;;15.90;99.90;;;;;;5056052;28;20492;-78
2021/09/11 01:18:14;;;;;;;0.17;0.17;;;15.90;99.90;;;;;;5055284;28;20048;-79
2021/09/11 01:20:40;;;;;;;0.03;0.03;;;16.00;99.90;;;;;;5055664;28;20032;-79
2021/09/11 01:23:06;;;;;;;0.20;0.20;;;16.00;99.90;;;;;;5053786;28;20041;-79
2021/09/11 01:25:32;;;;;;;0.67;0.40;;;16.00;99.90;;;;;;5054580;28;20036;-79
2021/09/11 01:27:58;;;;;;;0.00;0.00;;;16.10;99.90;;;;;;5053810;28;20118;-79
2021/09/11 01:30:24;;;;;;;0.10;0.10;;;16.10;99.90;;;;;;5055697;28;20029;-79
2021/09/11 01:32:51;;;;;;;0.00;0.00;;;16.00;99.90;;;;;;5053927;28;20425;-79
2021/09/11 01:35:17;;;;;;;0.03;0.03;;;16.10;99.90;;;;;;5054048;28;20031;-79
2021/09/11 01:37:43;;;;;;;0.20;0.20;;;16.10;99.90;;;;;;5054346;28;20025;-78
2021/09/11 01:40:10;;;;;;;0.00;0.00;;;16.10;99.90;;;;;;5053976;28;20052;-78
2021/09/11 01:42:36;;;;;;;0.10;0.10;;;16.10;99.90;;;;;;5055730;28;20037;-78
2021/09/11 01:45:15;;;;;;;0.10;0.10;;;16.00;99.90;;;;;;5052266;28;20543;-78
2021/09/11 01:47:42;;;;;;;0.00;0.00;;;16.10;99.90;;;;;;5054429;28;20035;-79
2021/09/11 01:50:09;;;;;;;0.10;0.10;;;16.10;99.90;;;;;;5054503;28;20441;-80
2021/09/11 01:52:36;;;;;;;0.03;0.03;;;16.10;99.90;;;;;;5054931;28;20033;-79
2021/09/11 01:55:04;;;;;;;0.00;0.00;;;16.10;99.90;;;;;;5054236;28;20056;-80
2021/09/11 01:57:29;;;;;;;0.10;0.10;;;16.10;99.90;;;;;;5054209;28;20025;-79
2021/09/11 01:59:55;;;;;;;0.13;0.13;;;16.10;99.90;;;;;;5057220;28;20035;-80
2021/09/11 02:02:21;;;;;;;0.10;0.10;;;16.10;99.90;;;;;;5053694;28;20029;-79
2021/09/11 02:04:47;;;;;;;0.00;0.00;;;16.10;99.90;;;;;;5054140;28;20036;-79
2021/09/11 02:07:13;;;;;;;0.00;0.00;;;16.10;99.90;;;;;;5051909;28;20086;-79
2021/09/11 02:09:38;;;;;;;0.00;0.00;;;16.10;99.90;;;;;;5052909;28;20040;-79
2021/09/11 02:12:07;;;;;;;0.00;0.00;;;16.10;99.90;;;;;;5052206;28;20068;-79
2021/09/11 02:14:33;;;;;;;0.40;0.32;;;16.20;99.90;;;;;;5056802;28;20032;-79
2021/09/11 02:17:01;;;;;;;0.20;0.20;;;16.30;99.90;;;;;;5052894;28;20110;-79
2021/09/11 02:19:27;;;;;;;0.00;0.00;;;16.30;99.90;;;;;;5052608;28;20381;-79
2021/09/11 02:21:52;;;;;;;0.03;0.03;;;16.40;99.90;;;;;;5055207;28;20039;-79
2021/09/11 02:24:18;;;;;;;1.03;0.93;;;16.40;99.90;;;;;;5052800;28;20548;-81
2021/09/11 02:26:44;;;;;;;0.63;0.10;;;16.40;99.90;;;;;;5035109;28;20549;-81
2021/09/11 02:29:09;;;;;;;0.00;0.00;;;16.50;99.90;;;;;;5053744;28;20108;-79
2021/09/11 02:31:35;;;;;;;0.17;0.17;;;16.50;99.90;;;;;;5053218;28;20591;-78
2021/09/11 02:34:00;;;;;;;0.00;0.00;;;16.40;99.90;;;;;;5055311;28;20040;-79
2021/09/11 02:36:26;;;;;;;0.20;0.17;;;16.50;99.90;;;;;;5053632;28;20033;-79
2021/09/11 02:38:52;;;;;;;0.10;0.10;;;16.40;99.90;;;;;;5053280;28;20040;-79
2021/09/11 02:41:17;;;;;;;0.10;0.10;;;16.40;99.90;;;;;;5035783;28;20489;-79
2021/09/11 02:43:43;;;;;;;0.07;0.07;;;16.40;99.90;;;;;;5053707;28;20032;-79
2021/09/11 02:46:10;;;;;;;0.10;0.10;;;16.40;99.90;;;;;;5033042;28;20062;-81
2021/09/11 02:48:36;;;;;;;0.00;0.00;;;16.40;99.90;;;;;;5054330;28;20037;-78
2021/09/11 02:51:02;;;;;;;0.10;0.10;;;16.40;99.90;;;;;;5052711;28;20496;-79
2021/09/11 02:53:28;;;;;;;0.00;0.00;;;16.30;99.90;;;;;;5049357;28;20020;-78
2021/09/11 02:55:54;;;;;;;0.07;0.07;;;16.30;99.90;;;;;;5053376;28;20029;-78
2021/09/11 02:58:22;;;;;;;0.00;0.00;;;16.20;99.90;;;;;;5051730;28;20028;-78
2021/09/11 03:00:49;;;;;;;0.10;0.10;;;16.20;99.90;;;;;;5054218;28;20035;-81
2021/09/11 03:03:15;;;;;;;;;;;16.30;99.90;;;;;;5053205;28;20131;-81
2021/09/11 03:05:40;;;;;;;0.00;0.00;;;16.20;99.90;;;;;;5052831;28;20427;-81
2021/09/11 03:08:06;;;;;;;0.20;0.20;;;16.20;99.90;;;;;;5033197;28;20040;-79
2021/09/11 03:10:32;;;;;;;0.10;0.10;;;16.20;99.90;;;;;;5052378;28;20053;-79
2021/09/11 03:12:57;;;;;;;0.23;0.23;;;16.10;99.90;;;;;;5052651;28;20519;-82
2021/09/11 03:15:23;;;;;;;0.20;0.20;;;16.10;99.90;;;;;;5054395;28;20556;-81
2021/09/11 03:17:49;;;;;;;0.20;0.20;;;16.10;99.90;;;;;;5051255;28;20035;-81
2021/09/11 03:20:14;;;;;;;0.00;0.00;;;16.10;99.90;;;;;;5054388;28;20513;-81
2021/09/11 03:22:40;;;;;;;0.10;0.10;;;16.10;99.90;;;;;;5054750;28;20410;-81
2021/09/11 03:25:06;;;;;;;0.10;0.10;;;16.10;99.90;;;;;;5052653;28;20102;-81
2021/09/11 03:27:32;;;;;;;0.00;0.00;;;16.20;99.90;;;;;;5052300;28;20029;-81
2021/09/11 03:29:57;;;;;;;0.00;0.00;;;16.10;99.90;;;;;;5052525;28;20810;-81
2021/09/11 03:32:23;;;;;;;0.17;0.17;;;16.20;99.90;;;;;;5051966;28;20493;-80
2021/09/11 03:34:49;;;;;;;0.00;0.00;;;16.10;99.90;;;;;;5053372;28;20029;-80
2021/09/11 03:37:14;;;;;;;0.00;0.00;;;16.20;99.90;;;;;;5051833;28;20413;-80
2021/09/11 03:39:40;;;;;;;0.23;0.23;;;16.20;99.90;;;;;;5052866;28;20513;-80
2021/09/11 03:42:06;;;;;;;0.10;0.10;;;16.10;99.90;;;;;;5052302;28;20118;-79
2021/09/11 03:44:31;;;;;;;0.10;0.10;;;16.10;99.90;;;;;;5051108;28;20036;-78
2021/09/11 03:46:57;;;;;;;0.00;0.00;;;16.00;99.90;;;;;;5050513;28;20520;-78
2021/09/11 03:49:23;;;;;;;0.10;0.10;;;16.00;99.90;;;;;;5050991;28;20036;-79
2021/09/11 03:51:48;;;;;;;0.23;0.23;;;16.00;99.90;;;;;;5051565;28;20040;-79
2021/09/11 03:54:14;;;;;;;0.00;0.00;;;16.10;99.90;;;;;;5051237;28;20040;-79
2021/09/11 03:56:40;;;;;;;0.00;0.00;;;16.10;99.90;;;;;;5050773;28;20028;-79
2021/09/11 03:59:06;;;;;;;0.10;0.10;;;16.00;99.90;;;;;;5051279;28;20032;-79
2021/09/11 04:01:31;;;;;;;0.27;0.27;;;16.10;99.90;;;;;;5054298;28;20037;-79
2021/09/11 04:03:57;;;;;;;0.23;0.23;;;16.10;99.90;;;;;;5052373;28;20397;-79
2021/09/11 04:06:23;;;;;;;0.00;0.00;;;16.10;99.90;;;;;;5050993;28;20044;-81
2021/09/11 04:08:49;;;;;;;1.40;0.73;;;16.10;99.90;;;;;;5050512;28;20025;-79
2021/09/11 04:11:15;;;;;;;0.10;0.10;;;16.10;99.90;;;;;;5051939;28;21766;-79
2021/09/11 04:13:40;;;;;;;0.00;0.00;;;16.10;99.90;;;;;;5053047;28;20025;-81
2021/09/11 04:16:06;;;;;;;0.00;0.00;;;16.10;99.90;;;;;;5052144;28;20626;-79
2021/09/11 04:18:32;;;;;;;0.30;0.20;;;16.10;99.90;;;;;;5052791;28;21559;-79
2021/09/11 04:20:57;;;;;;;0.10;0.10;;;16.00;99.90;;;;;;5051245;28;20036;-80
2021/09/11 04:23:23;;;;;;;0.10;0.10;;;15.90;99.90;;;;;;5031802;28;20033;-79
2021/09/11 04:25:49;;;;;;;0.03;0.03;;;15.90;99.90;;;;;;5050761;28;20041;-78
2021/09/11 04:28:14;;;;;;;0.10;0.10;;;15.80;99.90;;;;;;5050853;28;20041;-78
2021/09/11 04:30:40;;;;;;;0.50;0.23;;;15.80;99.90;;;;;;5053525;28;20033;-78
2021/09/11 04:33:06;;;;;;;0.10;0.10;;;15.70;99.90;;;;;;5050167;28;20032;-78
2021/09/11 04:35:31;;;;;;;0.27;0.27;;;15.60;99.90;;;;;;5051448;28;20037;-78
2021/09/11 04:37:57;;;;;;;0.20;0.20;;;15.50;99.90;;;;;;5032951;28;20033;-78
2021/09/11 04:40:23;;;;;;;0.00;0.00;;;15.50;99.90;;;;;;5051348;28;20783;-78
2021/09/11 04:42:49;;;;;;;0.20;0.20;;;15.50;99.90;;;;;;5052975;28;20113;-79
2021/09/11 04:45:15;;;;;;;0.17;0.17;;;15.60;99.90;;;;;;5052768;28;20504;-79
2021/09/11 04:47:41;;;;;;;0.00;0.00;;;15.60;99.90;;;;;;5051622;28;20044;-80
2021/09/11 04:50:07;;;;;;;1.03;0.30;;;15.70;99.90;;;;;;5050889;28;20028;-78
2021/09/11 04:52:33;;;;;;;0.35;0.35;;;15.70;99.90;;;;;;5049587;28;20461;-78
2021/09/11 04:54:58;;;;;;;0.27;0.20;;;15.70;99.90;;;;;;5051662;28;20108;-79
2021/09/11 04:57:24;;;;;;;0.13;0.13;;;15.60;99.90;;;;;;5050306;28;20040;-79
2021/09/11 04:59:50;;;;;;;0.43;0.43;;;15.50;99.90;;;;;;5049567;28;20550;-80
2021/09/11 05:02:16;;;;;;;0.00;0.00;;;15.30;99.90;;;;;;5050780;28;20397;-80
2021/09/11 05:04:42;;;;;;;0.00;0.00;;;15.30;99.90;;;;;;5051387;28;20112;-80
2021/09/11 05:07:08;;;;;;;0.00;0.00;;;15.30;99.90;;;;;;5050365;28;20136;-80
2021/09/11 05:09:34;;;;;;;0.00;0.00;;;15.20;99.90;;;;;;5051104;28;20515;-79
2021/09/11 05:12:03;;;;;;;0.00;0.00;;;15.30;99.90;;;;;;5050714;28;20408;-78
2021/09/11 05:14:30;;;;;;;0.30;0.30;;;15.20;99.90;;;;;;5050536;28;20108;-79
2021/09/11 05:16:56;;;;;;;0.20;0.20;;;15.20;99.90;;;;;;5051811;28;20069;-80
2021/09/11 05:19:22;;;;;;;0.10;0.10;;;15.30;99.90;;;;;;5051578;28;20772;-80
2021/09/11 05:21:48;;;;;;;0.30;0.27;;;15.40;99.90;;;;;;5052092;28;20065;-80
2021/09/11 05:24:16;;;;;;;0.50;0.50;;;15.40;99.90;;;;;;5051942;28;20549;-80
2021/09/11 05:26:42;;;;;;;0.10;0.10;;;15.30;99.90;;;;;;5049305;28;20025;-79
2021/09/11 05:29:08;;;;;;;0.10;0.10;;;15.30;99.90;;;;;;5048244;28;20100;-81
2021/09/11 05:31:33;;;;;;;0.10;0.10;;;15.20;99.90;;;;;;5053067;28;20055;-81
2021/09/11 05:33:59;;;;;;;0.00;0.00;;;15.30;99.90;;;;;;5032849;28;20132;-82
2021/09/11 05:36:25;;;;;;;0.47;0.47;;;15.30;99.90;;;;;;5050966;28;20025;-79
2021/09/11 05:38:51;;;;;;;0.40;0.40;;;15.40;99.90;;;;;;5054365;28;20280;-80
2021/09/11 05:41:17;;;;;;;0.00;0.00;;;15.40;99.90;;;;;;5054233;28;20577;-81
2021/09/11 05:43:42;;;;;;;0.33;0.10;;;15.40;99.90;;;;;;5053590;28;20032;-80
2021/09/11 05:46:08;;;;;;;0.10;0.10;;;15.40;99.90;;;;;;5052301;28;20044;-79
2021/09/11 05:48:36;;;;;;;0.30;0.10;;;15.40;99.90;;;;;;5055570;28;20086;-80
2021/09/11 05:51:03;;;;;;;0.00;0.00;;;15.40;99.90;;;;;;5057286;28;20033;-79
2021/09/11 05:53:29;;;;;;;0.00;0.00;;;15.40;99.90;;;;;;5052104;28;20025;-80
2021/09/11 05:55:54;;;;;;;0.40;0.30;;;15.40;99.90;;;;;;5055577;28;20424;-80
2021/09/11 05:58:20;;;;;;;3.47;0.67;;;15.40;99.90;;;;;;5055789;28;20093;-80
2021/09/11 06:00:46;;;;;;;0.10;0.10;;;15.40;99.90;;;;;;5054356;28;20061;-79
2021/09/11 06:03:12;;;;;;;0.00;0.00;;;15.40;99.90;;;;;;5035777;28;20040;-80
2021/09/11 06:05:38;;;;;;;0.00;0.00;;;15.40;99.90;;;;;;5035235;28;20033;-81
2021/09/11 06:08:04;;;;;;;0.10;0.10;;;15.60;99.90;;;;;;5036071;28;20753;-82
2021/09/11 06:10:30;;;;;;;0.30;0.30;;;15.50;99.90;;;;;;5055590;28;20036;-81
2021/09/11 06:12:55;;;;;;;0.10;0.10;;;15.60;99.90;;;;;;5055619;28;20471;-81
2021/09/11 06:15:21;;;;;;;0.20;0.20;;;15.90;99.90;;;;;;5053361;28;20454;-81
2021/09/11 06:17:47;;;;;;;0.00;0.00;;;16.20;99.90;;;;;;5053324;28;20021;-81
2021/09/11 06:20:13;;;;;;;0.10;0.10;;;16.20;99.90;;;;;;5054138;28;20048;-80
2021/09/11 06:22:39;;;;;;;0.10;0.10;;;16.30;99.90;;;;;;5054789;28;20461;-80
2021/09/11 06:25:06;;;;;;;0.00;0.00;;;16.70;99.90;;;;;;5052876;28;20398;-80
2021/09/11 06:27:31;;;;;;;;;;;16.60;99.90;;;;;;5055345;28;20025;-81
2021/09/11 06:29:57;;;;;;;0.20;0.20;;;16.40;99.90;;;;;;5050330;28;20557;-81
2021/09/11 06:32:23;;;;;;;0.00;0.00;;;16.20;99.90;;;;;;5045143;28;20037;-81
2021/09/11 06:34:48;;;;;;;0.00;0.00;;;16.20;99.90;;;;;;5047879;28;20029;-79
2021/09/11 06:37:14;;;;;;;0.10;0.10;;;16.00;99.90;;;;;;5036998;28;20398;-84
2021/09/11 06:39:40;;;;;;;0.03;0.03;;;15.80;99.90;;;;;;5053860;28;20401;-85
2021/09/11 06:42:05;;;;;;;0.00;0.00;;;15.40;99.90;;;;;;5046024;28;20032;-85
2021/09/11 06:44:31;;;;;;;0.00;0.00;;;15.60;99.90;;;;;;5050592;28;20036;-85
2021/09/11 06:46:57;;;;;;;0.00;0.00;;;15.60;99.90;;;;;;5047017;28;20060;-85
2021/09/11 06:49:22;;;;;;;0.30;0.30;;;15.90;99.90;;;;;;5037401;28;20029;-84
2021/09/11 06:51:48;;;;;;;0.10;0.10;;;15.70;99.90;;;;;;5040323;28;20338;-84
2021/09/11 06:54:14;;;;;;;0.00;0.00;;;15.70;99.90;;;;;;5045465;28;20099;-84
2021/09/11 06:56:40;;;;;;;0.00;0.00;;;15.80;99.90;;;;;;5028876;28;20389;-83
2021/09/11 06:59:05;;;;;;;0.33;0.33;;;15.70;99.90;;;;;;5049130;28;20060;-84
2021/09/11 07:01:31;;;;;;;0.40;0.40;;;16.20;99.90;;;;;;5041872;28;20493;-85
2021/09/11 07:03:57;;;;;;;0.10;0.10;;;16.20;99.90;;;;;;5037757;28;20144;-84
2021/09/11 07:06:24;;;;;;;0.10;0.10;;;16.80;99.90;;;;;;5040715;28;20417;-85
2021/09/11 07:08:50;;;;;;;0.00;0.00;;;16.40;99.90;;;;;;5044861;28;20119;-84
2021/09/11 07:11:16;;;;;;;0.10;0.10;;;16.80;99.90;;;;;;5049412;28;20536;-84
2021/09/11 07:13:41;;;;;;;0.47;0.47;;;17.30;99.90;;;;;;5050482;28;20031;-83
2021/09/11 07:16:07;;;;;;;0.10;0.10;;;17.10;99.90;;;;;;5032830;28;20695;-83
2021/09/11 07:18:34;;;;;;;0.00;0.00;;;17.50;99.90;;;;;;5051197;28;20029;-83
2021/09/11 07:21:01;;;;;;;0.00;0.00;;;17.70;99.90;;;;;;5045622;28;20391;-84
2021/09/11 07:23:27;;;;;;;0.00;0.00;;;18.10;99.90;;;;;;5050137;28;20033;-84
2021/09/11 07:25:53;;;;;;;0.20;0.20;;;18.40;99.90;;;;;;5043969;28;20048;-83
2021/09/11 07:28:18;;;;;;;0.37;0.30;;;19.20;99.90;;;;;;5054097;28;20103;-84
2021/09/11 07:30:44;;;;;;;0.00;0.00;;;19.60;99.90;;;;;;5055045;28;20129;-81
2021/09/11 07:33:10;;;;;;;0.10;0.10;;;18.60;99.90;;;;;;5050008;28;20039;-83
2021/09/11 07:35:35;;;;;;;0.00;0.00;;;18.10;99.90;;;;;;5049655;28;20060;-84
2021/09/11 07:38:01;;;;;;;0.10;0.10;;;20.20;99.90;;;;;;5042219;28;20029;-82
2021/09/11 07:40:27;;;;;;;0.13;0.13;;;22.10;99.90;;;;;;5065654;28;20123;-83
2021/09/11 07:42:53;;;;;;;0.00;0.00;;;20.80;99.90;;;;;;5055315;28;20283;-83
2021/09/11 07:45:19;;;;;;;0.10;0.10;;;22.60;99.90;;;;;;5053122;28;20056;-83
2021/09/11 07:47:44;;;;;;;0.00;0.00;;;22.70;99.90;;;;;;5053668;28;20120;-83
2021/09/11 07:50:11;;;;;;;0.00;0.00;;;21.60;99.90;;;;;;5048425;28;20489;-83
2021/09/11 07:52:38;;;;;;;0.05;0.05;;;22.00;99.90;;;;;;5052200;28;20037;-84
2021/09/11 07:55:04;;;;;;;;;;;22.00;99.90;;;;;;5051857;28;20083;-87
2021/09/11 07:57:29;;;;;;;0.98;0.10;;;27.90;99.90;;;;;;5039486;28;19912;-88
2021/09/11 07:59:55;;;;;;;0.00;0.00;;;29.80;99.90;;;;;;5039538;28;20045;-83
2021/09/11 08:02:21;;;;;;;0.00;0.00;;;30.90;99.90;;;;;;5046314;28;20295;-83
2021/09/11 08:04:47;;;;;;;0.00;0.00;;;29.50;99.90;;;;;;5045818;28;20032;-82
2021/09/11 08:07:13;;;;;;;0.10;0.10;;;30.20;99.90;;;;;;5056036;28;20032;-81
2021/09/11 08:09:39;;;;;;;0.00;0.00;;;31.80;97.50;;;;;;5049572;28;20043;-81
2021/09/11 08:12:05;;;;;;;0.00;0.00;;;31.70;99.90;;;;;;5054406;28;20068;-81
2021/09/11 08:14:31;;;;;;;0.00;0.00;;;31.20;94.90;;;;;;5049911;28;20040;-81
2021/09/11 08:16:57;;;;;;;0.00;0.00;;;32.60;93.80;;;;;;5045651;28;20013;-81
2021/09/11 08:19:22;;;;;;;0.00;0.00;;;34.10;92.00;;;;;;5055377;28;20082;-80
2021/09/11 08:21:48;;;;;;;0.00;0.00;;;33.90;88.20;;;;;;5050414;28;20119;-80
2021/09/11 08:24:14;;;;;;;0.00;0.00;;;35.00;77.20;;;;;;5047490;28;20049;-82
2021/09/11 08:26:40;;;;;;;0.00;0.00;;;36.40;70.70;;;;;;5053412;28;20463;-81
2021/09/11 08:29:05;;;;;;;0.08;0.08;;;37.30;64.00;;;;;;5051410;28;20111;-81
2021/09/11 08:31:31;;;;;;;0.90;0.30;;;37.00;61.20;;;;;;5047652;28;20559;-80
2021/09/11 08:33:57;;;;;;;0.00;0.00;;;36.50;64.90;;;;;;5054599;28;20064;-80
2021/09/11 08:36:23;;;;;;;0.28;0.28;;;35.50;61.00;;;;;;5045412;28;20087;-80
2021/09/11 08:38:49;;;;;;;0.22;0.22;;;36.50;58.30;;;;;;5033493;28;20033;-80
2021/09/11 08:41:14;;;;;;;;;;;37.60;56.10;;;;;;5053437;28;20032;-80
2021/09/11 08:43:40;;;;;;;0.00;0.00;;;36.50;53.70;;;;;;5052861;28;20665;-80
2021/09/11 08:46:06;;;;;;;0.00;0.00;;;34.90;54.70;;;;;;5050128;28;20047;-80
2021/09/11 08:48:32;;;;;;;0.00;0.00;;;31.20;65.50;;;;;;5050892;28;20385;-80
2021/09/11 08:50:58;;;;;;;0.05;0.05;;;31.60;64.90;;;;;;5048440;28;20041;-80
2021/09/11 08:53:24;;;;;;;0.00;0.00;;;33.00;59.30;;;;;;5054629;28;20067;-80
2021/09/11 08:55:49;;;;;;;0.00;0.00;;;35.50;56.30;;;;;;5049553;28;20410;-80
2021/09/11 08:58:20;;;;;;;0.05;0.05;;;35.30;46.70;;;;;;5055182;28;20130;-80
2021/09/11 09:00:51;;;;;;;0.00;0.00;;;36.60;50.10;;;;;;5051694;28;20036;-80
2021/09/11 09:03:24;;;;;;;0.00;0.00;;;36.80;47.60;;;;;;5046941;28;20025;-80
2021/09/11 09:05:50;;;;;;;0.10;0.10;;;37.10;40.30;;;;;;5059150;28;20044;-80
2021/09/11 09:08:26;;;;;;;0.00;0.00;;;37.90;37.00;;;;;;5048561;28;20103;-80
2021/09/11 09:10:52;;;;;;;0.00;0.00;;;37.30;36.10;;;;;;5054816;28;20056;-80
2021/09/11 09:13:18;;;;;;;0.10;0.10;;;38.70;33.30;;;;;;5058296;28;20416;-80
2021/09/11 09:15:43;;;;;;;0.27;0.27;;;37.40;32.30;;;;;;5066818;28;20032;-80
2021/09/11 09:18:09;;;;;;;0.00;0.00;;;37.30;47.00;;;;;;5055157;28;20644;-81
2021/09/11 09:20:35;;;;;;;0.00;0.00;;;33.70;42.10;;;;;;5055726;28;20041;-81
2021/09/11 09:23:00;;;;;;;0.00;0.00;;;34.30;43.50;;;;;;5054471;28;20021;-80
2021/09/11 09:25:38;;;;;;;0.03;0.03;;;32.00;48.80;;;;;;5046382;28;20371;-80
2021/09/11 09:28:09;;;;;;;0.10;0.00;;;29.00;61.70;;;;;;5054484;28;20037;-79
2021/09/11 09:30:35;;;;;;;0.20;0.10;;;26.80;69.20;;;;;;5049002;28;20028;-79
2021/09/11 09:33:02;;;;;;;0.00;0.00;;;25.90;73.00;;;;;;5049106;28;20106;-79
2021/09/11 09:35:27;;;;;;;0.00;0.00;;;29.70;67.90;;;;;;5048921;28;20033;-79
2021/09/11 09:38:08;;;;;;;0.00;0.00;;;28.20;65.30;;;;;;5053777;28;20035;-79
2021/09/11 09:40:40;;;;;;;0.13;0.10;;;27.30;68.70;;;;;;5060750;28;20276;-80
2021/09/11 09:43:07;;;;;;;1.00;0.10;;;29.30;69.60;;;;;;5037114;28;20785;-79
2021/09/11 09:45:34;;;;;;;0.00;0.00;;;29.10;63.60;;;;;;5050634;28;20036;-79
2021/09/11 09:48:01;;;;;;;0.00;0.00;;;34.20;53.20;;;;;;5049669;28;20025;-79
2021/09/11 09:50:52;;;;;;;;;;;37.20;41.50;;;;;;5055801;28;20033;-79
2021/09/11 09:53:18;;;;;;;0.20;0.10;;;38.00;32.00;;;;;;5047168;28;20007;-79
2021/09/11 09:55:44;;;;;;;0.00;0.00;;;40.00;30.00;;;;;;5062146;28;20037;-79
2021/09/11 09:58:09;;;;;;;0.00;0.00;;;38.20;37.90;;;;;;5047738;28;20287;-79
2021/09/11 10:00:35;;;;;;;0.00;0.00;;;38.50;30.80;;;;;;5043728;28;20028;-79
2021/09/11 10:03:02;;;;;;;0.00;0.00;;;38.10;32.60;;;;;;5047353;28;20115;-79
2021/09/11 10:05:29;;;;;;;0.00;0.00;;;39.90;26.90;;;;;;5029572;28;20292;-79
2021/09/11 10:07:59;;;;;;;0.00;0.00;;;38.50;28.70;;;;;;5046784;28;20037;-79
2021/09/11 10:10:37;;;;;;;1.55;0.55;;;34.10;37.50;;;;;;5047482;28;20060;-80
2021/09/11 10:13:18;;;;;;;2.75;0.75;;;37.30;27.40;;;;;;5046120;28;20029;-79
2021/09/11 10:16:04;;;;;;;0.00;0.00;;;38.30;26.70;;;;;;5047578;28;20064;-79
2021/09/11 10:18:30;;;;;;;0.00;0.00;;;39.60;25.10;;;;;;5027336;28;20021;-80
2021/09/11 10:21:37;;;;;;;0.17;0.17;;;35.50;30.80;;;;;;5045182;28;20056;-79
2021/09/11 10:24:03;;;;;;;0.00;0.00;;;30.00;48.30;;;;;;5033535;28;20036;-79
2021/09/11 10:26:51;;;;;;;0.00;0.00;;;27.40;55.00;;;;;;5047294;28;20041;-79
2021/09/11 10:29:44;;;;;;;0.10;0.10;;;26.40;59.20;;;;;;5048197;28;20452;-79
2021/09/11 10:32:23;;;;;;;0.00;0.00;;;25.60;62.20;;;;;;5038216;28;20104;-79
2021/09/11 10:35:01;;;;;;;0.00;0.00;;;24.90;63.30;;;;;;5047946;28;20063;-79
2021/09/11 10:37:29;;;;;;;0.00;0.00;;;26.80;66.20;;;;;;5056739;28;20029;-79
2021/09/11 10:40:27;;;;;;;0.20;0.20;;;29.70;61.50;;;;;;5051472;28;20032;-79
2021/09/11 10:43:16;;;;;;;0.05;0.05;;;29.90;58.90;;;;;;5049733;28;20052;-80
2021/09/11 10:45:45;;;;;;;0.00;0.00;;;29.40;57.70;;;;;;5048969;28;20041;-84
2021/09/11 10:48:45;;;;;;;0.00;0.00;;;28.90;58.90;;;;;;5044657;28;20033;-84
2021/09/11 10:51:11;;;;;;;1.58;0.38;;;28.20;60.30;;;;;;5048366;28;20033;-83
2021/09/11 10:53:37;;;;;;;0.35;0.30;;;27.50;59.90;;;;;;5040401;28;20025;-83
2021/09/11 10:56:23;;;;;;;0.10;0.10;;;27.80;61.00;;;;;;5055380;28;20029;-83
2021/09/11 10:59:14;;;;;;;0.00;0.00;;;27.50;61.30;;;;;;5048632;28;20106;-83
2021/09/11 11:02:03;;;;;;;0.17;0.17;;;27.10;64.90;;;;;;5032055;28;20029;-83
2021/09/11 11:04:33;;;;;;;0.28;0.10;;;27.00;64.00;;;;;;4986194;28;20066;-83
2021/09/11 11:07:01;;;;;;;0.10;0.10;;;26.90;64.60;;;;;;5000396;28;20074;-84
2021/09/11 11:09:27;;;;;;;0.00;0.00;;;26.30;65.30;;;;;;4986529;28;20602;-83
2021/09/11 11:11:55;;;;;;;0.35;0.35;;;26.00;68.20;;;;;;4985920;28;20062;-83
2021/09/11 11:14:22;;;;;;;0.00;0.00;;;26.40;68.80;;;;;;4986066;28;20034;-83
2021/09/11 11:16:53;;;;;;;0.30;0.30;;;26.50;65.70;;;;;;4985942;28;20050;-83
2021/09/11 11:19:27;;;;;;;0.10;0.10;;;26.60;65.40;;;;;;4986221;28;20026;-84
2021/09/11 11:21:55;;;;;;;0.10;0.10;;;27.10;65.40;;;;;;4991793;28;20045;-84
2021/09/11 11:24:21;;;;;;;0.13;0.13;;;26.30;65.10;;;;;;4989213;28;20030;-84
2021/09/11 11:26:47;;;;;;;0.10;0.10;;;24.90;68.00;;;;;;4990388;28;20046;-84
2021/09/11 11:29:17;;;;;;;0.00;0.00;;;24.90;70.10;;;;;;4993767;28;20033;-84
2021/09/11 11:31:44;;;;;;;0.00;0.00;;;25.50;69.70;;;;;;4976070;28;20502;-84
2021/09/11 11:34:12;;;;;;;0.28;0.28;;;26.30;67.20;;;;;;4988531;28;20126;-84
2021/09/11 11:36:45;;;;;;;0.30;0.30;;;26.00;67.30;;;;;;4989102;28;20034;-84
2021/09/11 11:39:22;;;;;;;0.05;0.00;;;25.90;68.50;;;;;;4991303;28;20038;-84
2021/09/11 11:42:20;;;;;;;0.13;0.13;;;26.00;68.60;;;;;;5026898;28;20068;-84
2021/09/11 11:44:51;;;;;;;0.17;0.10;;;26.10;68.70;;;;;;5042477;28;20507;-84
2021/09/11 11:47:37;;;;;;;0.05;0.00;;;25.90;68.10;;;;;;5035309;28;20033;-84
2021/09/11 11:50:09;;;;;;;0.00;0.00;;;25.70;69.80;;;;;;5044355;28;20031;-84
2021/09/11 11:52:35;;;;;;;0.00;0.00;;;25.50;71.20;;;;;;5049832;28;20025;-84
2021/09/11 11:55:08;;;;;;;0.00;0.00;;;25.10;70.20;;;;;;5052447;28;20029;-84
2021/09/11 11:57:33;;;;;;;0.00;0.00;;;24.90;70.80;;;;;;5051633;28;20063;-84
2021/09/11 12:00:04;;;;;;;0.00;0.00;;;24.60;70.80;;;;;;5033718;28;20072;-84
2021/09/11 12:02:37;;;;;;;0.68;0.45;;;24.90;71.90;;;;;;5053300;28;20279;-84
2021/09/11 12:05:23;;;;;;;0.25;0.10;;;25.10;71.50;;;;;;5051011;28;20028;-84
2021/09/11 12:07:52;;;;;;;;;;;24.90;71.40;;;;;;5052690;28;20040;-84
2021/09/11 12:10:18;;;;;;;0.10;0.10;;;24.50;72.50;;;;;;5051843;28;19925;-83
2021/09/11 12:12:45;;;;;;;0.10;0.10;;;24.60;71.50;;;;;;5052019;28;20253;-82
2021/09/11 12:15:13;;;;;;;0.25;0.08;;;24.70;71.30;;;;;;5052278;28;20526;-82
2021/09/11 12:18:16;;;;;;;0.10;0.10;;;24.60;72.50;;;;;;5035619;28;20052;-82
2021/09/11 12:20:53;;;;;;;0.00;0.00;;;24.60;72.80;;;;;;5053469;28;20048;-82
2021/09/11 12:23:31;;;;;;;0.10;0.10;;;25.00;74.00;;;;;;5050975;28;20485;-83
2021/09/11 12:26:07;;;;;;;0.25;0.22;;;24.70;73.20;;;;;;5055533;28;20039;-82
2021/09/11 12:28:53;;;;;;;0.00;0.00;;;24.50;73.80;;;;;;5049476;28;20140;-85
2021/09/11 12:31:21;;;;;;;0.10;0.10;;;24.70;73.20;;;;;;5054861;28;20033;-89
2021/09/11 12:33:57;;;;;;;0.08;0.08;;;24.60;73.20;;;;;;5050321;28;20029;-88
2021/09/11 12:36:42;;;;;;;0.00;0.00;;;24.60;73.60;;;;;;5051085;28;20592;-88
2021/09/11 12:39:26;;;;;;;0.00;0.00;;;24.60;72.90;;;;;;5051095;28;20478;-87
2021/09/11 12:41:54;;;;;;;0.20;0.10;;;24.30;72.80;;;;;;5044534;28;20033;-90
2021/09/11 12:44:25;;;;;;;0.05;0.05;;;24.30;73.00;;;;;;5044820;28;20562;-89
2021/09/11 12:46:55;;;;;;;0.00;0.00;;;24.30;74.10;;;;;;5047917;28;20068;-88
2021/09/11 12:49:23;;;;;;;0.00;0.00;;;24.20;75.20;;;;;;5049200;28;20399;-89
2021/09/11 12:51:50;;;;;;;0.00;0.00;;;24.40;76.30;;;;;;5051491;28;20071;-88